Time;durP1;ratioP1;P1;durP2;ratioP2;P2;SDS_P1;SDS_P2;PMS_P1;PMS_P2;Temp;Humidity;BMP_temperature;BMP_pressure;BME280_temperature;BME280_humidity;BME280_pressure;Samples;Min_cycle;Max_cycle;Signal;HPM_P1;HPM_P2
2022/02/15 00:01:52;;;;;;;2.17;1.80;;;8.60;99.90;;;;;;4904142;29;20207;-88
2022/02/15 00:04:18;;;;;;;4.00;2.27;;;8.00;99.90;;;;;;4931202;29;20941;-88
2022/02/15 00:06:48;;;;;;;3.97;2.10;;;8.00;99.90;;;;;;4902324;29;20440;-89
2022/02/15 00:09:17;;;;;;;2.07;2.03;;;8.00;99.90;;;;;;4896762;29;20199;-89
2022/02/15 00:11:42;;;;;;;3.67;2.50;;;7.90;99.90;;;;;;4901965;29;20452;-88
2022/02/15 00:14:08;;;;;;;3.90;2.47;;;8.00;99.90;;;;;;4903035;29;20459;-89
2022/02/15 00:16:34;;;;;;;2.60;2.40;;;8.00;99.90;;;;;;4917625;29;20792;-89
2022/02/15 00:18:59;;;;;;;8.13;3.20;;;7.90;99.90;;;;;;4904617;29;20269;-88
2022/02/15 00:21:25;;;;;;;4.73;2.87;;;8.10;99.90;;;;;;4923892;29;20372;-89
2022/02/15 00:23:51;;;;;;;2.22;2.13;;;8.10;99.90;;;;;;4925707;29;20273;-87
2022/02/15 00:26:17;;;;;;;2.67;2.10;;;8.00;99.90;;;;;;4935103;29;20220;-87
2022/02/15 00:28:42;;;;;;;5.20;2.37;;;7.60;99.90;;;;;;4917939;29;20210;-88
2022/02/15 00:31:08;;;;;;;9.23;2.50;;;8.00;99.90;;;;;;4918795;29;20316;-88
2022/02/15 00:33:33;;;;;;;3.10;2.90;;;8.10;99.90;;;;;;4943687;29;20190;-90
2022/02/15 00:35:59;;;;;;;4.93;3.23;;;8.00;99.90;;;;;;4928681;29;20667;-86
2022/02/15 00:38:25;;;;;;;3.20;1.95;;;8.00;99.90;;;;;;4913538;29;20244;-86
2022/02/15 00:40:51;;;;;;;3.93;2.70;;;8.00;99.90;;;;;;4902243;29;20654;-87
2022/02/15 00:43:16;;;;;;;4.30;2.60;;;7.80;99.90;;;;;;4893507;29;20220;-88
2022/02/15 00:45:42;;;;;;;5.10;2.70;;;7.90;99.90;;;;;;4877805;29;20177;-87
2022/02/15 00:48:08;;;;;;;5.80;2.20;;;7.80;99.90;;;;;;4896025;29;20211;-87
2022/02/15 00:50:34;;;;;;;4.17;2.20;;;7.80;99.90;;;;;;4896252;29;20258;-87
2022/02/15 00:52:59;;;;;;;4.60;2.80;;;7.80;99.90;;;;;;4910941;29;20274;-86
2022/02/15 00:55:25;;;;;;;3.00;2.80;;;7.90;99.90;;;;;;4895809;29;20604;-88
2022/02/15 00:57:51;;;;;;;3.67;2.40;;;7.90;99.90;;;;;;4911202;29;20207;-87
2022/02/15 01:00:17;;;;;;;6.43;2.70;;;7.90;99.90;;;;;;4896184;29;20180;-89
2022/02/15 01:02:44;;;;;;;4.47;2.70;;;8.00;99.90;;;;;;4896391;29;20191;-88
2022/02/15 01:05:10;;;;;;;4.90;2.80;;;7.50;99.90;;;;;;4913210;29;20491;-89
2022/02/15 01:07:36;;;;;;;6.67;2.83;;;8.00;99.90;;;;;;4915053;29;20176;-88
2022/02/15 01:10:03;;;;;;;3.57;2.63;;;7.90;99.90;;;;;;4899633;29;20192;-89
2022/02/15 01:12:29;;;;;;;3.63;2.40;;;8.20;99.90;;;;;;4904087;29;20460;-89
2022/02/15 01:14:55;;;;;;;6.97;3.00;;;8.10;99.90;;;;;;4897412;29;20432;-90
2022/02/15 01:17:21;;;;;;;3.37;2.60;;;8.10;99.90;;;;;;4915032;29;20211;-88
2022/02/15 01:19:46;;;;;;;2.63;2.50;;;7.80;99.90;;;;;;4894462;29;20448;-90
2022/02/15 01:22:12;;;;;;;5.27;2.90;;;8.10;99.90;;;;;;4908831;29;20196;-88
2022/02/15 01:24:38;;;;;;;2.60;2.40;;;8.00;99.90;;;;;;4902128;29;20199;-86
2022/02/15 01:27:04;;;;;;;8.27;2.80;;;8.00;99.90;;;;;;4904315;29;20569;-87
2022/02/15 01:29:30;;;;;;;3.50;3.20;;;7.80;99.90;;;;;;4919531;29;20271;-89
2022/02/15 01:31:55;;;;;;;2.25;2.15;;;7.90;99.90;;;;;;4915275;29;20587;-87
2022/02/15 01:34:24;;;;;;;5.93;3.00;;;7.90;99.90;;;;;;4921578;29;20199;-87
2022/02/15 01:36:50;;;;;;;8.60;3.00;;;8.40;99.90;;;;;;4934203;29;20510;-89
2022/02/15 01:39:15;;;;;;;2.40;2.30;;;8.00;99.90;;;;;;4916895;29;20807;-87
2022/02/15 01:41:41;;;;;;;5.30;3.00;;;7.90;99.90;;;;;;4913126;29;20642;-89
2022/02/15 01:44:07;;;;;;;7.90;2.80;;;7.90;99.90;;;;;;4915945;29;20183;-88
2022/02/15 01:46:33;;;;;;;3.10;2.90;;;7.90;99.90;;;;;;4915070;29;20465;-88
2022/02/15 01:48:59;;;;;;;5.95;3.03;;;7.30;99.90;;;;;;4911115;29;20666;-85
2022/02/15 01:51:26;;;;;;;3.50;2.47;;;8.40;99.90;;;;;;4930283;29;20373;-87
2022/02/15 01:53:53;;;;;;;4.43;2.53;;;8.30;99.90;;;;;;4928492;29;20677;-87
2022/02/15 01:56:19;;;;;;;3.25;2.67;;;7.90;99.90;;;;;;4928699;29;20443;-87
2022/02/15 01:58:44;;;;;;;2.93;2.63;;;9.70;99.90;;;;;;4930647;29;20215;-86
2022/02/15 02:01:10;;;;;;;6.83;2.93;;;7.80;99.90;;;;;;4929158;29;20455;-86
2022/02/15 02:03:36;;;;;;;3.30;3.00;;;7.80;99.90;;;;;;4931187;29;20193;-88
2022/02/15 02:06:02;;;;;;;7.77;2.70;;;7.80;99.90;;;;;;4909745;29;20195;-87
2022/02/15 02:08:33;;;;;;;4.10;2.80;;;8.00;99.90;;;;;;4895539;29;20597;-87
2022/02/15 02:11:00;;;;;;;3.03;2.80;;;7.90;99.90;;;;;;4913870;29;20442;-89
2022/02/15 02:13:27;;;;;;;3.37;3.07;;;7.90;99.90;;;;;;4924424;29;20183;-90
2022/02/15 02:15:53;;;;;;;6.60;3.40;;;7.90;99.90;;;;;;4922116;29;20470;-87
2022/02/15 02:18:23;;;;;;;3.30;3.08;;;7.80;99.90;;;;;;4921934;29;20490;-90
2022/02/15 02:21:38;;;;;;;3.30;3.20;;;7.90;99.90;;;;;;4901001;29;20280;-88
2022/02/15 02:24:07;;;;;;;10.13;3.60;;;7.80;99.90;;;;;;4872062;29;20208;-90
2022/02/15 02:26:53;;;;;;;;;;;;;;;;;;;;;
2022/02/15 02:29:19;;;;;;;10.13;3.50;;;8.40;99.90;;;;;;4899116;29;20482;-89
2022/02/15 02:31:47;;;;;;;6.00;3.43;;;7.30;99.90;;;;;;4879191;29;20204;-89
2022/02/15 02:34:13;;;;;;;3.77;3.50;;;7.80;99.90;;;;;;4866944;29;20216;-87
2022/02/15 02:36:49;;;;;;;3.93;3.27;;;7.90;99.90;;;;;;4893825;29;20428;-89
2022/02/15 02:39:15;;;;;;;3.53;3.40;;;7.60;99.90;;;;;;4886073;29;20850;-90
2022/02/15 02:41:41;;;;;;;5.13;4.73;;;;;;;;;;4900146;29;20440;-89
2022/02/15 02:44:07;;;;;;;5.93;4.80;;;7.80;99.90;;;;;;4898701;29;20447;-89
2022/02/15 02:46:32;;;;;;;5.47;4.53;;;7.70;99.90;;;;;;4881593;29;20448;-88
2022/02/15 02:48:59;;;;;;;6.23;5.63;;;7.60;99.90;;;;;;4867685;29;20197;-89
2022/02/15 02:51:24;;;;;;;7.03;4.97;;;7.70;99.90;;;;;;4918010;29;20192;-88
2022/02/15 02:53:50;;;;;;;8.07;5.20;;;7.60;99.90;;;;;;4906092;29;20531;-87
2022/02/15 02:56:15;;;;;;;6.03;5.53;;;7.10;99.90;;;;;;4887138;29;20200;-89
2022/02/15 02:58:41;;;;;;;7.07;5.67;;;7.50;99.90;;;;;;4891405;29;20277;-87
2022/02/15 03:01:07;;;;;;;9.77;6.63;;;7.50;99.90;;;;;;4894832;29;20246;-87
2022/02/15 03:03:35;;;;;;;5.93;5.50;;;7.60;99.90;;;;;;4887572;29;20425;-91
2022/02/15 03:06:05;;;;;;;8.03;5.87;;;7.60;99.90;;;;;;4903086;29;20208;-88
2022/02/15 03:08:31;;;;;;;9.63;5.40;;;7.90;99.90;;;;;;4880165;29;20421;-88
2022/02/15 03:10:56;;;;;;;15.80;6.10;;;7.70;99.90;;;;;;4870571;29;20509;-88
2022/02/15 03:13:22;;;;;;;5.40;4.90;;;7.70;99.90;;;;;;4887314;29;20184;-87
2022/02/15 03:15:50;;;;;;;8.77;5.80;;;7.60;99.90;;;;;;4879542;29;20269;-88
2022/02/15 03:18:16;;;;;;;10.30;5.95;;;7.50;99.90;;;;;;4886586;29;20212;-90
2022/02/15 03:20:44;;;;;;;10.23;5.63;;;7.70;99.90;;;;;;4874698;29;20228;-89
2022/02/15 03:23:10;;;;;;;6.97;5.30;;;7.50;99.90;;;;;;4899611;29;20228;-88
2022/02/15 03:25:36;;;;;;;7.83;6.93;;;7.80;99.90;;;;;;4893355;29;20271;-88
2022/02/15 03:28:02;;;;;;;11.57;6.40;;;7.70;99.90;;;;;;4884343;29;20205;-88
2022/02/15 03:30:27;;;;;;;10.50;6.83;;;7.60;99.90;;;;;;4915926;29;20308;-89
2022/02/15 03:32:53;;;;;;;9.10;7.33;;;7.60;99.90;;;;;;4907398;29;20443;-88
2022/02/15 03:35:19;;;;;;;9.30;7.57;;;;;;;;;;4939100;29;20206;-89
2022/02/15 03:37:45;;;;;;;8.47;7.67;;;7.50;99.90;;;;;;4906386;29;20231;-89
2022/02/15 03:40:11;;;;;;;8.50;6.50;;;7.40;99.90;;;;;;4915534;29;20514;-89
2022/02/15 03:45:21;;;;;;;10.10;6.97;;;7.00;99.90;;;;;;4921731;29;20984;-91
2022/02/15 03:47:48;;;;;;;12.50;9.10;;;7.60;99.90;;;;;;4936549;29;20199;-90
2022/02/15 03:50:17;;;;;;;8.90;7.73;;;7.50;99.90;;;;;;4903240;29;20189;-90
2022/02/15 03:52:56;;;;;;;10.82;8.30;;;7.40;99.90;;;;;;4908916;29;20436;-90
2022/02/15 03:55:26;;;;;;;14.98;8.15;;;7.50;99.90;;;;;;4921290;29;20248;-90
2022/02/15 03:57:51;;;;;;;15.77;9.00;;;7.50;99.90;;;;;;4911118;29;20734;-89
2022/02/15 04:00:17;;;;;;;12.40;8.93;;;7.40;99.90;;;;;;4916314;29;20460;-88
2022/02/15 04:02:43;;;;;;;14.37;8.03;;;7.40;99.90;;;;;;4915990;29;20287;-89
2022/02/15 04:05:09;;;;;;;12.63;8.73;;;7.80;99.90;;;;;;4917820;29;20714;-90
2022/02/15 04:07:35;;;;;;;11.63;10.33;;;7.30;99.90;;;;;;4930053;29;20734;-91
2022/02/15 04:10:01;;;;;;;9.63;8.47;;;7.30;99.90;;;;;;4917999;29;21102;-87
2022/02/15 04:12:26;;;;;;;9.60;7.20;;;7.40;99.90;;;;;;4900599;29;20436;-87
2022/02/15 04:14:52;;;;;;;14.43;9.20;;;7.20;99.90;;;;;;4924125;29;20470;-88
2022/02/15 04:17:17;;;;;;;13.50;7.63;;;7.30;99.90;;;;;;4919198;29;20567;-87
2022/02/15 04:19:43;;;;;;;8.80;7.90;;;7.40;99.90;;;;;;4955002;29;20175;-88
2022/02/15 04:22:09;;;;;;;11.90;8.10;;;7.40;99.90;;;;;;4914263;29;20201;-88
2022/02/15 04:24:34;;;;;;;9.93;8.93;;;7.40;99.90;;;;;;4906611;29;20194;-89
2022/02/15 04:27:03;;;;;;;11.50;8.90;;;7.30;99.90;;;;;;4931622;29;20238;-91
2022/02/15 04:29:29;;;;;;;16.87;7.63;;;7.40;99.90;;;;;;4914302;29;20324;-89
2022/02/15 04:31:55;;;;;;;9.73;8.83;;;7.30;99.90;;;;;;4934986;29;20460;-88
2022/02/15 04:34:21;;;;;;;15.60;8.27;;;7.40;99.90;;;;;;4933896;29;20175;-88
2022/02/15 04:36:47;;;;;;;12.63;8.10;;;7.30;99.90;;;;;;4919971;29;20438;-86
2022/02/15 04:39:12;;;;;;;11.37;8.27;;;7.80;99.90;;;;;;4923581;29;20215;-90
2022/02/15 04:41:39;;;;;;;11.53;7.43;;;7.40;99.90;;;;;;4910723;29;20440;-89
2022/02/15 04:44:05;;;;;;;11.80;8.10;;;7.40;99.90;;;;;;4913782;29;20239;-85
2022/02/15 04:46:32;;;;;;;10.27;8.30;;;7.20;99.90;;;;;;4910187;29;20445;-89
2022/02/15 04:48:59;;;;;;;9.37;8.47;;;7.30;99.90;;;;;;4916991;29;20509;-90
2022/02/15 04:51:24;;;;;;;14.00;8.67;;;7.30;99.90;;;;;;4901558;29;20737;-89
2022/02/15 04:53:50;;;;;;;8.00;7.23;;;7.30;99.90;;;;;;4921476;29;20424;-88
2022/02/15 04:56:16;;;;;;;9.63;8.30;;;7.50;99.90;;;;;;4922623;29;20196;-85
2022/02/15 04:58:41;;;;;;;12.60;8.63;;;7.40;99.90;;;;;;4912664;29;20802;-88
2022/02/15 05:01:07;;;;;;;12.03;8.30;;;7.30;99.90;;;;;;4921263;29;20531;-88
2022/02/15 05:03:34;;;;;;;8.43;7.70;;;7.40;99.90;;;;;;4912895;29;20191;-87
2022/02/15 05:05:59;;;;;;;14.03;9.43;;;7.20;99.90;;;;;;4919313;29;20188;-88
2022/02/15 05:08:25;;;;;;;9.30;8.33;;;7.10;99.90;;;;;;4906395;29;20520;-88
2022/02/15 05:10:51;;;;;;;12.60;8.43;;;7.50;99.90;;;;;;4919137;29;20448;-89
2022/02/15 05:13:17;;;;;;;9.90;8.20;;;7.80;99.90;;;;;;4916184;29;20179;-88
2022/02/15 05:15:44;;;;;;;9.83;8.70;;;7.30;99.90;;;;;;4922259;29;20192;-93
2022/02/15 05:18:10;;;;;;;11.10;8.40;;;7.00;99.90;;;;;;4899804;29;20220;-87
2022/02/15 05:20:37;;;;;;;13.00;7.73;;;7.30;99.90;;;;;;4914020;29;20499;-89
2022/02/15 05:23:03;;;;;;;10.77;9.37;;;7.30;99.90;;;;;;4925974;29;20183;-88
2022/02/15 05:25:28;;;;;;;13.90;9.30;;;7.30;99.90;;;;;;4935316;29;20547;-89
2022/02/15 05:27:57;;;;;;;16.73;9.40;;;7.10;99.90;;;;;;4898659;29;20526;-84
2022/02/15 05:30:23;;;;;;;18.75;9.57;;;7.10;99.90;;;;;;4927468;29;20234;-89
2022/02/15 05:32:48;;;;;;;17.17;8.40;;;7.50;99.90;;;;;;4913363;29;20213;-89
2022/02/15 05:35:14;;;;;;;10.40;8.30;;;8.30;99.90;;;;;;4941348;29;20423;-89
2022/02/15 05:37:40;;;;;;;10.43;9.10;;;8.80;99.90;;;;;;4895484;29;20698;-89
2022/02/15 05:40:07;;;;;;;11.17;8.60;;;7.30;99.90;;;;;;4932374;29;20198;-86
2022/02/15 05:42:33;;;;;;;18.47;10.53;;;7.20;99.90;;;;;;4920783;29;20242;-85
2022/02/15 05:44:59;;;;;;;13.30;9.70;;;7.20;99.90;;;;;;4932124;29;20467;-87
2022/02/15 05:47:24;;;;;;;15.97;9.00;;;7.30;99.90;;;;;;4893380;29;20881;-88
2022/02/15 05:52:36;;;;;;;11.85;9.30;;;7.20;99.90;;;;;;4929357;29;20236;-89
2022/02/15 05:55:04;;;;;;;11.50;9.30;;;7.90;99.90;;;;;;4902886;29;20274;-88
2022/02/15 05:57:29;;;;;;;10.57;9.17;;;7.20;99.90;;;;;;4899846;29;20216;-90
2022/02/15 05:59:55;;;;;;;13.23;8.90;;;6.90;99.90;;;;;;4917572;29;20528;-86
2022/02/15 06:02:21;;;;;;;13.13;9.33;;;7.10;99.90;;;;;;4922090;29;20285;-80
2022/02/15 06:04:47;;;;;;;11.20;9.60;;;;;;;;;;4923848;29;20721;-88
2022/02/15 06:07:13;;;;;;;10.37;8.90;;;7.50;99.90;;;;;;4923770;29;20744;-88
2022/02/15 06:09:39;;;;;;;15.00;9.17;;;6.90;99.90;;;;;;4917625;29;20451;-81
2022/02/15 06:12:05;;;;;;;11.93;8.27;;;6.50;99.90;;;;;;4932153;29;20478;-88
2022/02/15 06:14:31;;;;;;;10.82;8.20;;;7.10;99.90;;;;;;4894985;29;20571;-87
2022/02/15 06:16:57;;;;;;;15.07;10.23;;;;;;;;;;4930947;29;20458;-88
2022/02/15 06:19:22;;;;;;;9.52;8.52;;;7.20;99.90;;;;;;4897188;29;20220;-87
2022/02/15 06:21:49;;;;;;;14.20;8.10;;;7.00;99.90;;;;;;4945946;29;20384;-86
2022/02/15 06:24:17;;;;;;;11.90;7.57;;;7.00;99.90;;;;;;4940224;29;20187;-86
2022/02/15 06:26:43;;;;;;;11.20;8.50;;;6.80;99.90;;;;;;4943725;29;20183;-88
2022/02/15 06:29:09;;;;;;;14.23;8.97;;;6.70;99.90;;;;;;4904754;29;20467;-81
2022/02/15 06:31:36;;;;;;;8.80;8.00;;;8.90;99.90;;;;;;4932316;29;20423;-87
2022/02/15 06:34:05;;;;;;;12.07;8.83;;;7.10;99.90;;;;;;4915917;29;20521;-86
2022/02/15 06:36:31;;;;;;;10.87;8.20;;;6.80;99.90;;;;;;4933402;29;20466;-88
2022/02/15 06:38:57;;;;;;;13.18;7.45;;;6.90;99.90;;;;;;4931950;29;20485;-87
2022/02/15 06:41:23;;;;;;;10.00;8.02;;;5.90;99.90;;;;;;4933233;29;20202;-82
2022/02/15 06:43:50;;;;;;;7.97;7.13;;;7.10;99.90;;;;;;4935773;29;20817;-88
2022/02/15 06:46:15;;;;;;;10.53;8.47;;;9.70;99.90;;;;;;4914894;29;20188;-84
2022/02/15 06:48:41;;;;;;;8.87;7.40;;;7.10;99.90;;;;;;4933315;29;20805;-81
2022/02/15 06:51:09;;;;;;;15.80;8.40;;;7.20;99.90;;;;;;4930991;29;20276;-82
2022/02/15 06:53:35;;;;;;;9.30;7.87;;;7.20;99.90;;;;;;4940754;29;20202;-87
2022/02/15 06:56:01;;;;;;;9.73;6.40;;;6.90;99.90;;;;;;4922571;29;20443;-89
2022/02/15 06:58:28;;;;;;;11.83;7.57;;;6.60;99.90;;;;;;4924464;29;20215;-88
2022/02/15 07:00:53;;;;;;;14.00;6.17;;;8.00;99.90;;;;;;4577810;29;10000514;-84
2022/02/15 07:03:19;;;;;;;9.20;8.30;;;6.90;99.90;;;;;;4941770;29;20199;-86
2022/02/15 07:05:45;;;;;;;7.77;6.87;;;7.10;99.90;;;;;;4900847;29;20207;-89
2022/02/15 07:08:11;;;;;;;11.37;6.50;;;;;;;;;;4924705;29;20434;-82
2022/02/15 07:10:39;;;;;;;8.73;7.90;;;7.10;99.90;;;;;;4898349;29;20420;-90
2022/02/15 07:13:05;;;;;;;8.80;7.60;;;6.90;99.90;;;;;;4934290;29;20901;-82
2022/02/15 07:15:30;;;;;;;7.60;6.90;;;7.00;99.90;;;;;;4931608;29;20521;-89
2022/02/15 07:18:02;;;;;;;8.80;8.00;;;7.10;99.90;;;;;;4923768;29;20227;-84
2022/02/15 07:20:28;;;;;;;8.00;6.93;;;7.10;99.90;;;;;;4925433;29;20196;-88
2022/02/15 07:22:56;;;;;;;15.87;8.77;;;7.30;99.90;;;;;;4944155;29;20407;-89
2022/02/15 07:25:22;;;;;;;18.87;10.17;;;7.20;99.90;;;;;;4936925;29;20203;-90
2022/02/15 07:27:48;;;;;;;11.77;9.30;;;7.00;99.90;;;;;;4921708;29;20427;-83
2022/02/15 07:30:15;;;;;;;14.93;9.50;;;7.00;99.90;;;;;;4922925;29;20499;-90
2022/02/15 07:32:43;;;;;;;11.53;9.70;;;7.20;99.90;;;;;;4920154;29;20168;-89
2022/02/15 07:35:08;;;;;;;12.70;9.57;;;7.20;99.90;;;;;;4902653;29;20448;-81
2022/02/15 07:37:34;;;;;;;9.63;8.30;;;7.10;99.90;;;;;;4936836;29;20462;-89
2022/02/15 07:40:00;;;;;;;15.33;9.40;;;7.20;99.90;;;;;;4931972;29;20254;-85
2022/02/15 07:42:26;;;;;;;15.43;10.43;;;7.60;99.90;;;;;;4927476;29;20239;-92
2022/02/15 07:44:52;;;;;;;12.53;8.00;;;7.30;99.90;;;;;;4913019;29;20200;-77
2022/02/15 07:47:18;;;;;;;11.07;9.67;;;7.40;99.90;;;;;;4916600;29;20765;-80
2022/02/15 07:49:44;;;;;;;19.13;10.97;;;7.10;99.90;;;;;;4926031;29;20419;-78
2022/02/15 07:52:09;;;;;;;16.00;10.33;;;7.30;99.90;;;;;;4901644;29;20214;-76
2022/02/15 07:54:37;;;;;;;18.43;10.27;;;7.80;99.90;;;;;;4908560;29;20184;-78
2022/02/15 07:57:04;;;;;;;12.27;9.57;;;7.40;99.90;;;;;;4905808;29;20211;-76
2022/02/15 07:59:30;;;;;;;14.73;10.75;;;7.40;99.90;;;;;;4908734;29;20466;-79
2022/02/15 08:01:55;;;;;;;15.10;10.20;;;7.60;99.90;;;;;;4906283;29;20698;-77
2022/02/15 08:04:21;;;;;;;13.63;9.47;;;7.40;99.90;;;;;;4909052;29;20434;-80
2022/02/15 08:06:52;;;;;;;14.13;9.20;;;7.30;99.90;;;;;;4907791;29;20634;-80
2022/02/15 08:09:19;;;;;;;13.95;9.15;;;7.30;99.90;;;;;;4908891;29;20203;-78
2022/02/15 08:11:45;;;;;;;11.73;9.33;;;7.50;99.90;;;;;;4906651;29;20192;-77
2022/02/15 08:14:11;;;;;;;15.10;11.40;;;7.50;99.90;;;;;;4908874;29;20412;-77
2022/02/15 08:16:37;;;;;;;13.93;11.50;;;7.80;99.90;;;;;;4907011;29;20200;-77
2022/02/15 08:19:03;;;;;;;12.47;9.70;;;7.30;99.90;;;;;;4909083;29;20519;-76
2022/02/15 08:21:28;;;;;;;13.40;9.50;;;7.30;99.90;;;;;;4906989;29;20448;-76
2022/02/15 08:23:54;;;;;;;15.23;11.83;;;7.10;99.90;;;;;;4907873;29;20191;-77
2022/02/15 08:26:20;;;;;;;18.13;12.13;;;7.50;99.90;;;;;;4906993;29;20566;-79
2022/02/15 08:28:46;;;;;;;14.70;10.90;;;7.30;99.90;;;;;;4908826;29;20572;-78
2022/02/15 08:31:12;;;;;;;13.57;10.10;;;7.50;99.90;;;;;;4906902;29;20857;-79
2022/02/15 08:33:38;;;;;;;12.60;8.20;;;7.50;99.90;;;;;;4909899;29;20432;-79
2022/02/15 08:36:04;;;;;;;23.73;13.73;;;7.50;99.90;;;;;;4908534;29;20883;-83
2022/02/15 08:38:33;;;;;;;18.70;12.90;;;8.10;99.90;;;;;;4911208;29;21000;-78
2022/02/15 08:41:00;;;;;;;16.10;10.13;;;7.30;99.90;;;;;;4910212;29;20440;-80
2022/02/15 08:43:26;;;;;;;17.63;12.27;;;7.60;99.90;;;;;;4911750;29;20459;-77
2022/02/15 08:45:52;;;;;;;20.37;14.40;;;7.90;99.90;;;;;;4980865;23;20564;-82
2022/02/15 08:48:17;;;;;;;24.40;15.10;;;7.60;99.90;;;;;;4914843;29;20439;-82
2022/02/15 08:50:43;;;;;;;20.33;12.17;;;7.70;99.90;;;;;;4920549;29;20566;-82
2022/02/15 08:53:09;;;;;;;19.97;13.30;;;7.80;99.90;;;;;;4907665;29;20198;-80
2022/02/15 08:55:34;;;;;;;17.17;12.37;;;9.20;99.90;;;;;;4919421;29;20665;-81
2022/02/15 08:58:00;;;;;;;14.17;11.70;;;8.00;99.90;;;;;;4897233;29;20224;-80
2022/02/15 09:00:26;;;;;;;19.83;12.10;;;7.90;99.90;;;;;;4921632;29;20196;-80
2022/02/15 09:02:51;;;;;;;19.00;13.10;;;7.70;99.90;;;;;;4930701;29;20434;-79
2022/02/15 09:05:17;;;;;;;15.00;11.27;;;8.00;99.90;;;;;;4910552;29;20239;-81
2022/02/15 09:07:43;;;;;;;18.27;14.17;;;7.60;99.90;;;;;;4900614;29;20202;-80
2022/02/15 09:10:09;;;;;;;18.50;12.00;;;8.10;99.90;;;;;;4604245;29;10000624;-81
2022/02/15 09:12:35;;;;;;;16.70;11.90;;;8.90;99.90;;;;;;4924496;29;20279;-81
2022/02/15 09:15:02;;;;;;;15.73;10.70;;;8.10;99.90;;;;;;4918999;29;20507;-83
2022/02/15 09:17:28;;;;;;;12.97;11.27;;;8.20;99.90;;;;;;4918593;29;20218;-80
2022/02/15 09:19:53;;;;;;;16.13;12.17;;;8.40;99.90;;;;;;4908275;29;20439;-80
2022/02/15 09:22:19;;;;;;;15.60;12.13;;;8.10;99.90;;;;;;4911015;29;20263;-77
2022/02/15 09:24:45;;;;;;;17.07;12.47;;;8.40;99.90;;;;;;4916634;29;20242;-80
2022/02/15 09:27:11;;;;;;;13.43;9.43;;;8.10;99.90;;;;;;4923137;29;20265;-78
2022/02/15 09:29:37;;;;;;;18.10;12.07;;;9.10;99.90;;;;;;4923777;29;20442;-81
2022/02/15 09:32:03;;;;;;;17.60;10.73;;;8.00;99.90;;;;;;4917292;29;20544;-79
2022/02/15 09:34:28;;;;;;;13.47;11.37;;;8.00;99.90;;;;;;4917279;29;20216;-80
2022/02/15 09:36:54;;;;;;;14.13;11.00;;;8.30;99.90;;;;;;4909889;29;20614;-81
2022/02/15 09:39:20;;;;;;;15.17;11.17;;;8.10;99.90;;;;;;4898509;29;20219;-79
2022/02/15 09:41:47;;;;;;;13.03;10.73;;;8.20;99.90;;;;;;4897248;29;20871;-80
2022/02/15 09:44:14;;;;;;;12.37;10.30;;;8.00;99.90;;;;;;4916827;29;20752;-81
2022/02/15 09:46:42;;;;;;;9.30;7.30;;;8.10;99.90;;;;;;4883172;29;20464;-80
2022/02/15 09:49:48;;;;;;;12.90;9.23;;;8.20;99.90;;;;;;4896096;29;20445;-80
2022/02/15 09:51:54;;;;;;;9.90;9.00;;;8.10;99.90;;;;;;4899727;29;20960;-79
2022/02/15 09:54:20;;;;;;;10.10;9.10;;;8.20;99.90;;;;;;4908606;29;20439;-81
2022/02/15 09:56:46;;;;;;;14.97;9.53;;;8.50;99.90;;;;;;4901011;29;20967;-78
2022/02/15 09:59:14;;;;;;;12.30;9.30;;;8.30;99.90;;;;;;4900260;29;20495;-81
2022/02/15 10:01:40;;;;;;;10.60;9.60;;;8.40;99.90;;;;;;4904921;29;20214;-80
2022/02/15 10:04:07;;;;;;;9.60;8.70;;;8.40;99.90;;;;;;4904728;29;20444;-81
2022/02/15 10:06:35;;;;;;;13.23;9.83;;;8.40;99.90;;;;;;4905454;29;20467;-81
2022/02/15 10:09:03;;;;;;;9.50;8.37;;;8.50;99.90;;;;;;4901115;29;20456;-82
2022/02/15 10:11:37;;;;;;;13.67;10.17;;;8.60;99.90;;;;;;4899273;29;20440;-80
2022/02/15 10:14:03;;;;;;;8.73;7.83;;;8.30;99.90;;;;;;4890911;29;20788;-81
2022/02/15 10:16:30;;;;;;;15.43;8.80;;;8.50;99.90;;;;;;4898879;29;20483;-81
2022/02/15 10:18:57;;;;;;;8.10;7.30;;;8.60;99.90;;;;;;4896194;29;20569;-81
2022/02/15 10:21:27;;;;;;;8.43;7.47;;;8.30;99.90;;;;;;4896351;29;20286;-80
2022/02/15 10:23:53;;;;;;;11.93;10.50;;;8.50;99.90;;;;;;4880340;29;20454;-82
2022/02/15 10:26:19;;;;;;;10.73;9.00;;;7.80;99.90;;;;;;4899270;29;20950;-80
2022/02/15 10:28:44;;;;;;;10.87;9.87;;;8.70;99.90;;;;;;4901999;29;20200;-81
2022/02/15 10:31:13;;;;;;;9.60;7.77;;;8.40;99.90;;;;;;4895175;29;20511;-81
2022/02/15 10:33:42;;;;;;;9.07;8.27;;;8.40;99.90;;;;;;4873776;29;20484;-79
2022/02/15 10:36:10;;;;;;;15.63;9.03;;;8.40;99.90;;;;;;4899416;29;20864;-79
2022/02/15 10:38:38;;;;;;;7.70;7.10;;;8.50;99.90;;;;;;4901570;29;20475;-80
2022/02/15 10:41:11;;;;;;;9.73;8.70;;;9.30;99.90;;;;;;4884782;29;20452;-79
2022/02/15 10:43:41;;;;;;;9.27;7.33;;;8.50;99.90;;;;;;4902280;29;20453;-79
2022/02/15 10:46:15;;;;;;;10.83;9.93;;;9.60;99.90;;;;;;4900682;29;20471;-77
2022/02/15 10:48:41;;;;;;;11.30;9.03;;;8.50;99.90;;;;;;4905263;29;20869;-80
2022/02/15 10:51:07;;;;;;;16.73;10.10;;;8.40;99.90;;;;;;4897042;29;20455;-80
2022/02/15 10:53:34;;;;;;;10.23;8.30;;;8.60;99.90;;;;;;4912087;29;20443;-81
2022/02/15 10:56:00;;;;;;;10.63;9.83;;;8.50;99.90;;;;;;4899219;29;20851;-81
2022/02/15 10:58:27;;;;;;;10.17;8.80;;;8.60;99.90;;;;;;4871810;29;20492;-81
2022/02/15 11:00:57;;;;;;;14.77;9.70;;;8.60;99.90;;;;;;4897404;29;20539;-81
2022/02/15 11:03:24;;;;;;;10.47;9.47;;;9.10;99.90;;;;;;4890812;29;20421;-81
2022/02/15 11:05:50;;;;;;;9.83;8.77;;;9.30;99.90;;;;;;4899337;29;20933;-80
2022/02/15 11:08:19;;;;;;;10.50;9.43;;;9.50;99.90;;;;;;4903243;29;20450;-79
2022/02/15 11:10:51;;;;;;;9.37;8.37;;;9.70;99.90;;;;;;4887899;29;20686;-80
2022/02/15 11:13:17;;;;;;;11.47;10.37;;;9.30;99.90;;;;;;4902492;29;20455;-79
2022/02/15 11:15:45;;;;;;;10.63;9.00;;;9.30;99.90;;;;;;4903346;29;20536;-82
2022/02/15 11:18:12;;;;;;;7.80;7.20;;;9.70;99.90;;;;;;4898339;29;20476;-82
2022/02/15 11:20:50;;;;;;;9.67;8.80;;;8.80;99.90;;;;;;4897620;29;20448;-80
2022/02/15 11:23:18;;;;;;;7.87;7.07;;;8.90;99.90;;;;;;4907137;29;20734;-82
2022/02/15 11:25:45;;;;;;;6.37;5.73;;;8.90;99.90;;;;;;4906901;29;20439;-82
2022/02/15 11:28:11;;;;;;;6.80;5.73;;;9.20;99.90;;;;;;4906002;29;20447;-81
2022/02/15 11:30:46;;;;;;;6.13;5.83;;;9.40;99.90;;;;;;4902887;29;20448;-81
2022/02/15 11:33:20;;;;;;;3.50;3.30;;;9.60;99.90;;;;;;4884936;29;20538;-83
2022/02/15 11:35:57;;;;;;;5.10;4.70;;;9.30;99.90;;;;;;4907107;29;20925;-81
2022/02/15 11:38:24;;;;;;;6.40;5.10;;;9.90;99.90;;;;;;4905546;29;20568;-82
2022/02/15 11:41:16;;;;;;;4.77;4.50;;;10.80;98.70;;;;;;4902455;29;20460;-80
2022/02/15 11:43:55;;;;;;;3.90;3.60;;;10.90;98.40;;;;;;4902385;29;20444;-81
2022/02/15 11:46:35;;;;;;;3.33;3.23;;;10.20;98.50;;;;;;4902289;29;20992;-85
2022/02/15 11:49:09;;;;;;;3.37;3.17;;;10.70;96.70;;;;;;4904433;29;20428;-81
2022/02/15 11:51:36;;;;;;;3.90;2.80;;;11.90;92.00;;;;;;4903328;29;20440;-81
2022/02/15 11:54:01;;;;;;;3.33;3.23;;;12.70;88.90;;;;;;4894251;29;20462;-84
2022/02/15 11:56:29;;;;;;;1.83;1.83;;;13.30;87.10;;;;;;4894269;29;20448;-83
2022/02/15 11:58:56;;;;;;;6.03;3.07;;;12.70;81.90;;;;;;4912067;29;20252;-83
2022/02/15 12:01:23;;;;;;;3.20;3.00;;;11.60;85.60;;;;;;4912189;29;20484;-85
2022/02/15 12:03:49;;;;;;;3.30;3.10;;;10.80;88.40;;;;;;4913459;29;21033;-84
2022/02/15 12:06:18;;;;;;;5.03;3.40;;;10.40;90.30;;;;;;4895833;29;20820;-83
2022/02/15 12:08:57;;;;;;;4.37;2.90;;;10.40;90.60;;;;;;4896257;29;20439;-85
2022/02/15 12:11:49;;;;;;;3.30;3.10;;;11.70;88.70;;;;;;4904367;29;20439;-85
2022/02/15 12:14:17;;;;;;;2.90;2.80;;;12.40;84.40;;;;;;4886704;29;20436;-82
2022/02/15 12:16:47;;;;;;;3.07;2.93;;;12.90;82.60;;;;;;4893137;29;20444;-84
2022/02/15 12:19:35;;;;;;;3.20;3.10;;;13.60;81.60;;;;;;4881395;29;20489;-84
2022/02/15 12:22:07;;;;;;;5.87;3.60;;;12.90;79.20;;;;;;4911615;29;20530;-84
2022/02/15 12:24:33;;;;;;;1.73;1.73;;;13.20;80.60;;;;;;4897299;29;20436;-82
2022/02/15 12:27:03;;;;;;;3.17;2.10;;;13.40;71.20;;;;;;4894581;29;20976;-84
2022/02/15 12:29:29;;;;;;;2.50;2.40;;;12.90;69.90;;;;;;4914059;29;20417;-85
2022/02/15 12:31:56;;;;;;;4.00;2.40;;;12.60;68.20;;;;;;4918921;29;20429;-83
2022/02/15 12:34:22;;;;;;;2.20;2.10;;;12.60;66.90;;;;;;4914066;29;20440;-84
2022/02/15 12:36:48;;;;;;;3.70;2.80;;;12.00;69.40;;;;;;4908091;29;20428;-85
2022/02/15 12:39:14;;;;;;;2.60;2.47;;;12.20;73.30;;;;;;4914690;29;20505;-85
2022/02/15 12:41:43;;;;;;;2.33;2.23;;;12.40;70.80;;;;;;4894298;29;20196;-84
2022/02/15 12:44:15;;;;;;;2.93;2.67;;;12.50;72.80;;;;;;4911841;29;20662;-85
2022/02/15 12:46:42;;;;;;;2.50;2.40;;;13.80;71.10;;;;;;4911033;29;20480;-83
2022/02/15 12:49:29;;;;;;;2.20;2.10;;;13.30;72.00;;;;;;4891248;29;21066;-84
2022/02/15 12:51:55;;;;;;;3.30;2.40;;;13.90;67.40;;;;;;4907435;29;20650;-84
2022/02/15 12:54:21;;;;;;;2.77;2.60;;;15.30;65.70;;;;;;4910971;29;20494;-84
2022/02/15 12:56:46;;;;;;;2.27;2.17;;;13.70;61.10;;;;;;4911435;29;20195;-85
2022/02/15 12:59:21;;;;;;;2.20;2.10;;;12.80;63.30;;;;;;4903105;29;20480;-84